Weather observations for the past three days for
Chariton
Imperial (Metric)
Date Time (cdt) Wind (mph) Vis. (mi.) Weather Sky Cond. Temperature (ºF) Relative Humidity Wind Chill (°F) Heat Index (°F) Pressure Precipitation (in)
Air Dwpt 6 hour altimeter (in) sea level (mb) 1 hr 3 hr 6 hr
Max. Min.
04 00:35 SW 5 10.00 Fair CLR 57.2 37.4 48% 29.73 0.0
03 23:55 SW 6 10.00 Fair CLR 59 37.4 45% 29.73 0.0
03 23:35 SW 6 10.00 Fair CLR 55.4 37.4 51% 29.73 0.0
03 23:15 SW 3 10.00 Fair CLR 57.2 37.4 48% 29.74 0.0
03 22:55 SW 6 10.00 Fair CLR 59 35.6 42% 29.75 0.0
03 22:35 SW 6 10.00 Fair CLR 59 37.4 45% 29.76 0.0
03 22:15 SW 6 10.00 Fair CLR 60.8 35.6 39% 29.76 0.0
03 21:55 SW 7 10.00 Fair CLR 60.8 35.6 39% 29.76 0.0
03 21:35 SW 6 10.00 Fair CLR 62.6 35.6 37% 29.76 0.0
03 21:15 SW 6 10.00 Fair CLR 62.6 35.6 37% 29.76 0.0
03 20:55 SW 5 10.00 Fair CLR 64.4 35.6 34% 29.76 0.0
03 20:35 SW 5 9.00 Fair CLR 64.4 35.6 34% 29.76 0.0
03 20:15 SW 5 10.00 Fair CLR 66.2 35.6 32% 29.76 0.0
03 19:55 W 7 10.00 Fair CLR 66.2 35.6 32% 29.76 0.0
03 19:35 W 8 10.00 Fair CLR 68 35.6 30% 29.76 0.0
03 19:15 W 8 10.00 Fair CLR 69.8 35.6 29% 29.76 0.0
03 18:55 W 10 10.00 Fair CLR 69.8 35.6 29% 29.76 0.0
03 18:35 W 12 10.00 Fair CLR 71.6 32 23% 29.77 0.0
03 18:15 W 14 10.00 Fair CLR 71.6 33.8 25% 29.77 0.0
03 17:55 W 14 10.00 Fair CLR 71.6 33.8 25% 29.77 0.0
03 17:35 NW 13 10.00 Fair CLR 71.6 33.8 25% 29.77 0.0
03 17:15 NW 10 G 16 10.00 Fair CLR 71.6 33.8 25% 29.77 0.0
03 16:55 NW 14 10.00 Fair CLR 71.6 33.8 25% 29.77 0.0
03 16:35 NW 14 G 22 10.00 Fair CLR 73.4 35.6 25% 29.77 0.0
03 16:15 NW 14 G 22 10.00 Fair CLR 73.4 37.4 27% 29.77 0.0
03 15:55 W 16 G 23 10.00 Fair CLR 73.4 37.4 27% 29.78 0.0
03 15:35 W 13 G 21 9.00 Fair CLR 73.4 37.4 27% 29.78 0.0
03 15:15 NW 18 10.00 Fair CLR 73.4 37.4 27% 29.79 0.0
03 14:55 W 15 G 24 9.00 Fair CLR 71.6 37.4 29% 29.8 0.0
03 14:35 NW 17 9.00 Fair CLR 71.6 37.4 29% 29.8 0.0
03 14:15 W 14 G 23 9.00 Fair CLR 71.6 37.4 29% 29.8 0.0
03 13:55 W 12 G 22 10.00 Fair CLR 71.6 41 33% 29.8 0.0
03 13:35 W 12 G 23 10.00 Fair CLR 69.8 41 35% 29.8 0.0
03 13:15 W 14 G 21 9.00 Fair CLR 68 41 38% 29.81 0.0
03 12:55 W 14 G 21 10.00 Fair CLR 68 41 38% 29.81 0.0
03 12:35 W 17 10.00 Fair CLR 64.4 41 43% 29.83 0.0
03 12:15 W 16 G 22 10.00 Fair CLR 62.6 41 45% 29.83 0.0
03 11:55 W 12 10.00 Fair CLR 62.6 41 45% 29.83 0.0
03 11:35 W 14 10.00 Fair CLR 62.6 41 45% 29.84 0.0
03 11:15 SW 9 G 16 10.00 Fair CLR 62.6 41 45% 29.83 0.0
03 10:55 W 15 G 21 10.00 Fair CLR 62.6 41 45% 29.84 0.0
03 10:35 W 15 G 24 10.00 Fair CLR 59 39.2 48% 29.84 0.0
03 10:15 SW 21 10.00 Fair and Breezy CLR 57.2 37.4 48% 29.84 0.0
03 09:55 SW 14 G 28 10.00 Fair CLR 57.2 37.4 48% 29.84 0.0
03 09:35 SW 20 10.00 Fair CLR 57.2 35.6 44% 29.84 0.0
03 09:15 SW 18 G 25 10.00 Fair CLR 53.6 35.6 51% 29.84 0.0
03 08:55 SW 16 G 24 9.00 Fair CLR 55.4 33.8 44% 29.85 0.0
03 08:35 SW 16 G 24 10.00 Fair CLR 53.6 33.8 47% 29.85 0.0
03 08:15 SW 16 10.00 Fair CLR 53.6 33.8 47% 29.85 0.0
03 07:55 SW 15 G 23 10.00 Fair CLR 51.8 32 47% 29.86 0.0
03 07:35 SW 14 G 22 10.00 Fair CLR 51.8 32 47% 29.86 0.0
03 07:15 SW 15 G 24 10.00 Fair CLR 51.8 32 47% 29.85 0.0
03 06:55 S 15 10.00 Fair CLR 51.8 32 47% 29.84 0.0
03 06:35 S 16 10.00 Fair CLR 50 32 50% 45 29.84 0.0
03 06:15 S 14 G 20 10.00 Fair CLR 50 32 50% 45 29.85 0.0
03 05:55 S 16 10.00 A Few Clouds FEW120 50 32 50% 45 29.86 0.0
03 05:35 S 14 10.00 Partly Cloudy SCT110 50 32 50% 45 29.87 0.0
03 05:15 S 15 G 21 10.00 Partly Cloudy SCT110 50 32 50% 45 29.88 0.0
03 04:55 S 15 10.00 Partly Cloudy SCT120 50 32 50% 45 29.89 0.0
03 04:35 S 13 10.00 A Few Clouds FEW110 50 32 50% 46 29.89 0.0
03 04:15 S 10 10.00 Mostly Cloudy FEW090 BKN120 48.2 32 54% 44 29.9 0.0
03 03:55 S 12 10.00 A Few Clouds FEW110 48.2 32 54% 44 29.9 0.0
03 03:35 S 12 10.00 A Few Clouds FEW110 48.2 32 54% 44 29.91 0.0
03 03:15 S 10 10.00 Fair CLR 48.2 32 54% 44 29.92 0.0
03 02:55 S 13 10.00 A Few Clouds FEW120 48.2 32 54% 43 29.92 0.0
03 02:35 S 13 10.00 Fair CLR 48.2 32 54% 43 29.91 0.0
03 02:15 S 13 10.00 Fair CLR 48.2 32 54% 43 29.93 0.0
03 01:55 S 12 10.00 A Few Clouds FEW060 48.2 30.2 50% 44 29.94 0.0
03 01:35 S 13 10.00 Fair CLR 48.2 30.2 50% 43 29.95 0.0
03 01:15 S 12 10.00 Fair CLR 48.2 32 54% 44 29.96 0.0
03 00:55 S 10 10.00 Fair CLR 46.4 32 57% 42 29.97 0.0
03 00:35 S 9 10.00 Fair CLR 46.4 32 57% 42 29.97 0.0
03 00:15 S 9 10.00 Fair CLR 46.4 32 57% 42 29.97 0.0
02 23:55 S 9 10.00 Fair CLR 46.4 32 57% 42 29.98 0.0
02 23:35 S 9 10.00 Fair CLR 46.4 32 57% 42 29.98 0.0
02 23:15 S 7 10.00 A Few Clouds FEW046 46.4 32 57% 43 29.99 0.0
02 22:55 S 7 10.00 A Few Clouds FEW048 FEW120 48.2 32 54% 46 29.99 0.0
02 22:35 S 7 10.00 A Few Clouds FEW120 46.4 32 57% 43 30 0.0
02 22:15 S 8 10.00 A Few Clouds FEW120 46.4 32 57% 43 30.01 0.0
02 21:55 Calm 10.00 Fair CLR 48.2 32 54% 30.01 0.0
02 21:35 S 7 6.00 A Few Clouds with Haze FEW038 50 32 50% 48 30.01 0.0
02 21:15 S 7 6.00 Fair with Haze CLR 51.8 32 47% 30.02 0.0
02 20:55 S 7 4.00 Fair with Haze CLR 51.8 32 47% 30.01 0.0
02 20:35 S 7 5.00 Fair with Haze CLR 53.6 32 44% 30.01 0.0
02 20:15 SW 6 7.00 Fair CLR 55.4 30.2 38% 30.01 0.0
02 19:55 SW 3 9.00 Fair CLR 57.2 26.6 31% 30.01 0.0
02 19:35 W 6 G 12 9.00 Fair CLR 59 28.4 31% 30.01 0.0
02 19:15 W 8 9.00 Fair CLR 59 26.6 29% 30.02 0.0
02 18:55 W 8 10.00 Fair CLR 60.8 26.6 27% 30.02 0.0
02 18:35 NW 10 10.00 Fair CLR 60.8 28.4 29% 30.03 0.0
02 18:15 W 8 G 16 10.00 Fair CLR 60.8 26.6 27% 30.03 0.0
02 17:55 Vrbl 6 10.00 Fair CLR 60.8 26.6 27% 30.04 0.0
02 17:35 W 7 G 15 10.00 Fair CLR 60.8 26.6 27% 30.04 0.0
02 17:15 W 13 G 18 10.00 Fair CLR 60.8 26.6 27% 30.04 0.0
02 16:55 W 13 10.00 Fair CLR 60.8 26.6 27% 30.05 0.0
02 16:35 Vrbl 6 G 16 10.00 Fair CLR 60.8 26.6 27% 30.06 0.0
02 16:15 W 12 10.00 Fair CLR 60.8 26.6 27% 30.06 0.0
02 15:55 NW 9 10.00 NULL NULL 59 24.8 27% 30.07 0.0
02 15:35 SW 8 G 14 10.00 Fair CLR 59 26.6 29% 30.08 0.0
02 15:15 Calm 9.00 Fair CLR 59 26.6 29% 30.09 0.0
02 14:55 Vrbl 6 G 15 10.00 Fair CLR 59 28.4 31% 30.09 0.0
02 14:35 W 12 G 17 10.00 Fair CLR 59 26.6 29% 30.1 0.0
02 14:15 SW 8 G 14 9.00 Fair CLR 57.2 28.4 33% 30.1 0.0
02 13:55 W 12 10.00 Fair CLR 57.2 26.6 31% 30.11 0.0
02 13:35 Calm 10.00 Fair CLR 55.4 24.8 31% 30.11 0.0
02 13:15 Vrbl 7 G 14 10.00 Fair CLR 57.2 26.6 31% 30.12 0.0
02 12:55 S 7 10.00 Fair CLR 55.4 28.4 36% 30.12 0.0
02 12:35 W 10 G 16 10.00 Fair CLR 55.4 24.8 31% 30.13 0.0
02 12:15 N 7 G 14 9.00 Fair CLR 55.4 24.8 31% 30.14 0.0
02 11:55 NE 6 G 12 10.00 Fair CLR 53.6 23 30% 30.14 0.0
02 11:35 Vrbl 5 G 13 10.00 Fair CLR 53.6 24.8 33% 30.14 0.0
02 11:15 NW 12 10.00 Fair CLR 53.6 26.6 35% 30.14 0.0
02 10:55 Calm 10.00 Fair CLR 53.6 24.8 33% 30.15 0.0
02 10:35 N 8 10.00 Fair CLR 51.8 23 32% 30.15 0.0
02 10:15 Vrbl 6 10.00 Fair CLR 51.8 26.6 38% 30.15 0.0
02 09:55 W 7 10.00 Fair CLR 51.8 28.4 41% 30.14 0.0
02 09:35 Calm 10.00 Fair CLR 50 30.2 47% 30.15 0.0
02 09:15 Calm 10.00 Fair CLR 48.2 32 54% 30.15 0.0
02 08:55 NW 3 10.00 Fair CLR 46.4 33.8 62% 30.15 0.0
02 08:35 NW 5 10.00 Fair CLR 44.6 32 61% 43 30.15 0.0
02 08:15 NW 6 10.00 Fair CLR 42.8 32 66% 40 30.15 0.0
02 07:55 NW 5 10.00 Fair CLR 41 41 100% 38 30.14 0.0
02 07:35 NW 5 10.00 Fair CLR 39.2 39.2 100% 36 30.14 0.0
02 07:15 NW 5 10.00 Fair CLR 35.6 35.6 100% 32 30.13 0.0
02 06:55 NW 6 10.00 Fair CLR 33.8 33.8 100% 29 30.13 0.0
02 06:35 NW 5 10.00 Fair CLR 32 32 100% 28 30.12 0.0
02 06:15 NW 6 10.00 Fair CLR 33.8 33.8 100% 29 30.11 0.0
02 05:55 NW 6 10.00 Fair CLR 35.6 35.6 100% 31 30.11 0.0
02 05:35 NW 5 10.00 Fair CLR 35.6 35.6 100% 32 30.11 0.0
02 05:15 NW 6 10.00 Fair CLR 37.4 37.4 100% 33 30.11 0.0
02 04:55 NW 5 10.00 Fair CLR 37.4 37.4 100% 34 30.1 0.0
02 04:35 NW 7 10.00 Fair CLR 35.6 35.6 100% 31 30.1 0.0
02 04:15 NW 6 10.00 Fair CLR 37.4 37.4 100% 33 30.1 0.0
02 03:55 NW 6 10.00 Partly Cloudy SCT075 37.4 37.4 100% 33 30.1 0.0
02 03:35 NW 6 10.00 A Few Clouds FEW075 37.4 32 81% 33 30.09 0.0
02 03:15 N 5 10.00 Fair CLR 39.2 33.8 81% 36 30.09 0.0
02 02:55 NW 6 10.00 Fair CLR 39.2 33.8 81% 36 30.09 0.0
02 02:35 NW 6 10.00 Fair CLR 41 35.6 81% 38 30.09 0.0
02 02:15 NW 6 10.00 A Few Clouds FEW085 39.2 37.4 93% 36 30.09 0.0
02 01:55 NW 6 10.00 Mostly Cloudy BKN080 41 37.4 87% 38 30.1 0.0
02 01:35 NW 6 10.00 Partly Cloudy SCT080 39.2 37.4 93% 36 30.1 0.0
02 01:15 NW 7 10.00 Overcast FEW055 FEW065 OVC080 41 35.6 81% 37 30.1 0.0
02 00:55 NW 5 10.00 Overcast FEW065 OVC080 42.8 35.6 76% 41 30.09 0.0
02 00:35 NW 5 10.00 Overcast OVC080 42.8 37.4 81% 41 30.09 0.0
02 00:15 W 5 10.00 Overcast OVC080 42.8 37.4 81% 41 30.09 0.0
01 23:55 NW 5 10.00 Overcast SCT075 OVC085 42.8 37.4 81% 41 30.09 0.0
01 23:35 NW 3 10.00 Overcast FEW047 FEW065 OVC085 44.6 37.4 76% 30.09 0.0
01 23:15 Calm 10.00 Overcast FEW032 SCT065 OVC080 46.4 33.8 62% 30.09 0.0
01 22:55 N 5 10.00 Overcast SCT049 SCT055 OVC080 46.4 32 57% 45 30.09 0.0
01 22:35 N 5 10.00 Overcast SCT049 SCT055 OVC080 46.4 32 57% 45 30.08 0.0
01 22:15 N 3 10.00 Overcast BKN075 OVC085 46.4 32 57% 30.08 0.0
01 21:55 Calm 10.00 Overcast FEW050 BKN075 OVC085 48.2 32 54% 30.08 0.0
01 21:35 N 3 10.00 Overcast SCT055 BKN065 OVC080 48.2 32 54% 30.07 0.0
01 21:15 NE 5 10.00 Overcast BKN060 BKN070 OVC085 46.4 32 57% 45 30.06 0.0
01 20:55 NE 5 10.00 Overcast FEW060 SCT070 OVC090 46.4 32 57% 45 30.05 0.0
01 20:35 N 7 10.00 Mostly Cloudy FEW065 SCT070 BKN090 50 30.2 47% 48 30.05 0.0
01 20:15 N 8 10.00 Mostly Cloudy BKN085 50 30.2 47% 47 30.04 0.0
01 19:55 N 6 10.00 Mostly Cloudy BKN090 50 32 50% 48 30.03 0.0
01 19:40 N 8 10.00 Mostly Cloudy BKN095 53.6 30.2 41% 30.02 0.0
01 19:15 N 9 G 17 10.00 Mostly Cloudy SCT070 BKN100 53.6 28.4 38% 30.02 0.0
01 18:55 N 14 10.00 Partly Cloudy SCT100 53.6 28.4 38% 30.01 0.0
01 18:35 N 12 10.00 A Few Clouds FEW080 FEW095 55.4 28.4 36% 30.01 0.0
01 18:15 N 13 10.00 Partly Cloudy FEW065 SCT080 SCT100 55.4 28.4 36% 30.01 0.0
01 17:55 N 13 10.00 Partly Cloudy FEW060 SCT085 55.4 30.2 38% 30.01 0.0
01 17:35 N 10 G 17 10.00 Fair CLR 55.4 30.2 38% 30.01 0.0
01 17:15 Vrbl 7 10.00 A Few Clouds FEW060 FEW075 FEW090 55.4 32 41% 30.01 0.0
01 16:55 N 13 G 18 10.00 Partly Cloudy SCT060 SCT075 SCT100 57.2 32 39% 30.01 0.0
01 16:35 NW 14 10.00 Fair CLR 59 32 36% 30.01 0.0
01 16:15 N 13 G 20 9.00 Partly Cloudy FEW055 FEW070 SCT095 55.4 33.8 44% 30.01 0.0
01 15:55 NE 12 G 22 10.00 Mostly Cloudy SCT055 BKN090 57.2 32 39% 30.01 0.0
01 15:35 N 10 G 16 10.00 Partly Cloudy FEW049 SCT060 SCT100 55.4 32 41% 30.02 0.0
01 15:15 N 15 G 22 10.00 Partly Cloudy FEW049 SCT070 57.2 35.6 44% 30.02 0.0
01 14:55 N 15 9.00 Mostly Cloudy BKN070 BKN080 53.6 33.8 47% 30.02 0.0
01 14:35 N 16 G 23 10.00 A Few Clouds FEW065 FEW085 55.4 35.6 47% 30.02 0.0
01 14:15 NW 13 10.00 A Few Clouds FEW080 57.2 30.2 36% 30.01 0.0
01 13:55 NW 13 G 22 10.00 A Few Clouds FEW070 FEW085 59 30.2 34% 30.01 0.0
01 13:35 NW 8 G 22 10.00 A Few Clouds FEW065 57.2 28.4 33% 30.01 0.0
01 13:15 NW 15 G 23 10.00 A Few Clouds FEW065 FEW075 57.2 28.4 33% 30.01 0.0
01 12:55 NW 15 10.00 Partly Cloudy SCT065 SCT075 59 30.2 34% 30.01 0.0
01 12:35 NW 17 10.00 Partly Cloudy SCT060 SCT065 57.2 30.2 36% 30.01 0.0
01 12:15 NW 15 G 22 10.00 Partly Cloudy SCT055 SCT065 57.2 32 39% 30.01 0.0
01 11:55 N 10 G 18 10.00 A Few Clouds FEW055 FEW070 57.2 32 39% 30.01 0.0
01 11:35 NW 12 G 17 10.00 A Few Clouds FEW060 57.2 32 39% 30.01 0.0
01 11:15 W 12 10.00 Fair CLR 57.2 32 39% 30.01 0.0
01 10:55 W 8 G 15 10.00 Fair CLR 55.4 33.8 44% 30.01 0.0
01 10:35 W 10 9.00 Fair CLR 53.6 32 44% 30.01 0.0
01 10:15 SW 8 G 16 10.00 Fair CLR 53.6 32 44% 30.02 0.0
01 09:55 W 12 G 17 10.00 Fair CLR 53.6 32 44% 30.02 0.0
01 09:35 Vrbl 6 G 14 10.00 Fair CLR 51.8 32 47% 30.03 0.0
01 09:15 NW 7 10.00 Fair CLR 50 32 50% 48 30.03 0.0
01 08:55 W 6 9.00 Fair CLR 48.2 33.8 58% 46 30.03 0.0
01 08:35 W 7 10.00 Fair CLR 46.4 32 57% 43 30.03 0.0
01 08:15 W 5 10.00 A Few Clouds FEW075 42.8 32 66% 41 30.04 0.0
01 07:55 W 6 10.00 Partly Cloudy SCT075 SCT090 44.6 32 61% 42 30.04 0.0
01 07:35 W 5 10.00 Partly Cloudy FEW070 FEW080 SCT090 41 32 70% 38 30.04 0.0
01 07:15 W 3 10.00 Partly Cloudy SCT070 SCT090 41 32 70% 30.04 0.0
01 06:55 W 5 10.00 Partly Cloudy SCT090 39.2 32 75% 36 30.03 0.0
01 06:35 W 7 10.00 Mostly Cloudy FEW065 BKN085 39.2 32 75% 35 30.03 0.0
01 06:15 SW 7 10.00 Mostly Cloudy SCT065 BKN075 BKN085 39.2 32 75% 35 30.03 0.0
01 05:55 W 7 10.00 Mostly Cloudy BKN070 37.4 30.2 75% 33 30.03 0.0
01 05:35 W 7 10.00 Overcast OVC070 37.4 32 81% 33 30.03 0.0
01 05:15 SW 6 10.00 Overcast OVC070 37.4 30.2 75% 33 30.03 0.0
01 04:55 SW 5 10.00 Mostly Cloudy SCT070 BKN090 39.2 30.2 70% 36 30.03 0.0
01 04:35 SW 8 10.00 Partly Cloudy SCT075 SCT085 37.4 30.2 75% 32 30.03 0.0
01 04:15 W 7 10.00 Overcast FEW065 SCT075 OVC090 37.4 30.2 75% 33 30.04 0.0
01 03:55 W 7 10.00 Mostly Cloudy FEW046 SCT065 BKN075 35.6 30.2 81% 31 30.04 0.0
01 03:35 W 7 10.00 Overcast FEW070 BKN080 OVC095 37.4 30.2 75% 33 30.04 0.0
01 03:15 W 7 10.00 Partly Cloudy FEW075 SCT090 37.4 30.2 75% 33 30.04 0.0
01 02:55 W 7 10.00 Fair CLR 37.4 30.2 75% 33 30.04 0.0
01 02:35 W 7 10.00 Fair CLR 37.4 32 81% 33 30.05 0.0
01 02:15 W 8 10.00 A Few Clouds FEW034 37.4 32 81% 32 30.05 0.0
01 01:55 W 8 10.00 Fair CLR 37.4 32 81% 32 30.06 0.0
01 01:35 W 7 10.00 Fair CLR 37.4 30.2 75% 33 30.06 0.0
01 01:15 W 8 10.00 Fair CLR 37.4 30.2 75% 32 30.06 0.0
01 00:55 W 8 10.00 Fair CLR 37.4 30.2 75% 32 30.07 0.0
Date Time (cdt) Wind (mph) Vis. (mi.) Weather Sky Cond. Air Dwpt Max. Min. Relative Humidity Wind Chill (°F) Heat Index (°F) altimeter (in) sea level (mb) 1 hr 3 hr 6 hr
6 hour
Temperature (ºF) Pressure Precipitation (in)